Time;durP1;ratioP1;P1;durP2;ratioP2;P2;SDS_P1;SDS_P2;PMS_P1;PMS_P2;Temp;Humidity;BMP_temperature;BMP_pressure;BME280_temperature;BME280_humidity;BME280_pressure;Samples;Min_cycle;Max_cycle;Signal;HPM_P1;HPM_P2
2022/08/25 00:01:17;;;;;;;6.82;2.70;;;;;;;;;;5013756;28;20384;-62
2022/08/25 00:03:43;;;;;;;5.70;2.92;;;;;;;;;;5014765;28;20441;-62
2022/08/25 00:06:08;;;;;;;7.82;3.42;;;;;;;;;;5017254;28;20100;-62
2022/08/25 00:08:36;;;;;;;6.88;3.00;;;;;;;;;;5017577;28;20476;-62
2022/08/25 00:11:03;;;;;;;11.20;3.08;;;;;;;;;;5017177;28;20540;-61
2022/08/25 00:13:28;;;;;;;5.47;3.13;;;;;;;;;;5017370;28;20037;-62
2022/08/25 00:15:53;;;;;;;4.20;3.15;;;;;;;;;;5017149;28;20117;-62
2022/08/25 00:18:19;;;;;;;7.20;3.28;;;;;;;;;;5017030;28;20116;-61
2022/08/25 00:20:45;;;;;;;9.27;3.08;;;;;;;;;;5017231;28;20026;-61
2022/08/25 00:23:10;;;;;;;5.18;2.70;;;;;;;;;;5017121;28;20429;-62
2022/08/25 00:25:36;;;;;;;9.90;3.15;;;;;;;;;;5016919;28;20018;-62
2022/08/25 00:28:02;;;;;;;7.43;3.03;;;;;;;;;;5016847;28;20156;-62
2022/08/25 00:30:27;;;;;;;8.05;3.17;;;;;;;;;;5017087;28;20030;-62
2022/08/25 00:32:52;;;;;;;12.00;3.15;;;;;;;;;;5016683;28;20066;-62
2022/08/25 00:35:18;;;;;;;9.40;3.55;;;;;;;;;;4999083;28;20103;-62
2022/08/25 00:37:44;;;;;;;8.23;2.95;;;;;;;;;;5015771;28;20482;-62
2022/08/25 00:40:09;;;;;;;7.78;2.58;;;;;;;;;;5016354;28;20037;-62
2022/08/25 00:42:36;;;;;;;9.00;2.67;;;;;;;;;;5016569;28;20026;-62
2022/08/25 00:45:01;;;;;;;10.35;3.30;;;;;;;;;;5016742;28;20022;-61
2022/08/25 00:47:27;;;;;;;9.50;3.00;;;;;;;;;;4999404;28;20147;-61
2022/08/25 00:49:57;;;;;;;6.15;2.65;;;;;;;;;;5016480;28;20441;-61
2022/08/25 00:52:49;;;;;;;6.72;2.80;;;;;;;;;;5016410;28;20034;-62
2022/08/25 00:55:17;;;;;;;7.68;2.45;;;;;;;;;;5013155;28;20096;-61
2022/08/25 00:57:45;;;;;;;7.90;3.17;;;;;;;;;;5016057;28;20036;-61
2022/08/25 01:00:32;;;;;;;8.70;2.78;;;;;;;;;;5016658;28;20034;-62
2022/08/25 01:02:58;;;;;;;5.30;3.20;;;;;;;;;;5016185;28;20105;-62
2022/08/25 01:05:23;;;;;;;7.05;3.33;;;;;;;;;;5016066;28;20440;-62
2022/08/25 01:07:49;;;;;;;11.95;3.47;;;;;;;;;;5016262;28;20576;-61
2022/08/25 01:10:16;;;;;;;9.20;3.40;;;;;;;;;;5016179;28;20433;-61
2022/08/25 01:12:41;;;;;;;10.00;3.25;;;;;;;;;;5016377;28;20087;-62
2022/08/25 01:15:08;;;;;;;10.38;3.50;;;;;;;;;;5015768;28;20014;-62
2022/08/25 01:17:48;;;;;;;7.53;3.15;;;;;;;;;;5016101;28;20112;-62
2022/08/25 01:20:14;;;;;;;8.02;2.90;;;;;;;;;;5016197;28;20054;-62
2022/08/25 01:22:40;;;;;;;10.63;3.05;;;;;;;;;;5015982;28;20014;-61
2022/08/25 01:25:41;;;;;;;7.97;2.58;;;;;;;;;;5015936;28;20370;-62
2022/08/25 01:28:06;;;;;;;8.18;2.50;;;;;;;;;;4955365;29;20031;-62
2022/08/25 01:30:33;;;;;;;5.75;2.67;;;;;;;;;;5003216;28;20037;-62
2022/08/25 01:33:01;;;;;;;5.68;2.58;;;;;;;;;;5015509;28;20032;-61
2022/08/25 01:35:26;;;;;;;6.18;2.90;;;;;;;;;;5015358;28;20054;-61
2022/08/25 01:37:52;;;;;;;9.30;2.88;;;;;;;;;;4997958;28;20063;-61
2022/08/25 01:40:17;;;;;;;10.50;2.90;;;;;;;;;;5015750;28;20381;-62
2022/08/25 01:42:52;;;;;;;3.58;2.80;;;;;;;;;;5015926;28;20033;-61
2022/08/25 01:45:17;;;;;;;9.57;2.70;;;;;;;;;;5015594;28;20049;-62
2022/08/25 01:47:43;;;;;;;6.75;2.63;;;;;;;;;;5015508;28;20022;-62
2022/08/25 01:50:08;;;;;;;7.43;2.80;;;;;;;;;;5015492;28;20032;-62
2022/08/25 01:52:45;;;;;;;10.20;3.25;;;;;;;;;;5015626;28;20026;-62
2022/08/25 01:55:11;;;;;;;7.07;2.63;;;;;;;;;;5015481;28;20033;-62
2022/08/25 01:57:36;;;;;;;6.20;2.58;;;;;;;;;;5015363;28;20105;-62
2022/08/25 02:00:04;;;;;;;6.72;3.05;;;;;;;;;;5015432;28;20449;-62
2022/08/25 02:02:36;;;;;;;5.97;2.65;;;;;;;;;;5015345;28;20105;-62
2022/08/25 02:05:02;;;;;;;4.55;2.38;;;;;;;;;;5013946;28;20545;-62
2022/08/25 02:07:28;;;;;;;6.88;2.63;;;;;;;;;;5015110;28;20101;-62
2022/08/25 02:09:53;;;;;;;8.57;3.17;;;;;;;;;;5015495;28;20061;-62
2022/08/25 02:12:19;;;;;;;8.18;3.13;;;;;;;;;;5015090;28;20456;-62
2022/08/25 02:14:44;;;;;;;5.85;2.97;;;;;;;;;;5014995;28;20400;-62
2022/08/25 02:17:10;;;;;;;6.38;2.70;;;;;;;;;;5015037;28;20026;-62
2022/08/25 02:19:35;;;;;;;5.00;2.78;;;;;;;;;;5014719;28;20034;-62
2022/08/25 02:22:01;;;;;;;6.85;2.88;;;;;;;;;;5014754;28;20053;-62
2022/08/25 02:24:27;;;;;;;7.47;2.70;;;;;;;;;;5014653;28;20392;-62
2022/08/25 02:26:52;;;;;;;5.80;2.85;;;;;;;;;;5014270;28;20022;-62
2022/08/25 02:29:18;;;;;;;4.75;2.75;;;;;;;;;;4997150;28;20033;-62
2022/08/25 02:31:43;;;;;;;9.15;2.75;;;;;;;;;;5014765;28;20030;-62
2022/08/25 02:34:09;;;;;;;12.68;3.40;;;;;;;;;;5014699;28;20034;-61
2022/08/25 02:36:34;;;;;;;8.52;2.80;;;;;;;;;;5014424;28;20131;-61
2022/08/25 02:39:00;;;;;;;8.90;2.97;;;;;;;;;;5014447;28;20036;-62
2022/08/25 02:41:26;;;;;;;5.13;2.65;;;;;;;;;;5014603;28;20018;-62
2022/08/25 02:43:52;;;;;;;6.40;3.13;;;;;;;;;;5014241;28;20030;-62
2022/08/25 02:46:19;;;;;;;7.80;2.70;;;;;;;;;;5014769;28;20014;-62
2022/08/25 02:48:45;;;;;;;8.70;2.85;;;;;;;;;;5013251;28;20037;-62
2022/08/25 02:51:11;;;;;;;7.30;2.95;;;;;;;;;;5014101;28;20048;-62
2022/08/25 02:53:38;;;;;;;8.00;3.03;;;;;;;;;;5014587;28;20116;-62
2022/08/25 02:56:04;;;;;;;6.13;2.92;;;;;;;;;;5014156;28;20030;-62
2022/08/25 02:58:29;;;;;;;8.52;2.67;;;;;;;;;;5014271;28;20084;-62
2022/08/25 03:00:55;;;;;;;9.52;3.08;;;;;;;;;;5014349;28;20056;-61
2022/08/25 03:03:21;;;;;;;8.80;2.95;;;;;;;;;;5012976;28;20109;-61
2022/08/25 03:05:47;;;;;;;11.00;2.90;;;;;;;;;;5013925;28;20018;-61
2022/08/25 03:08:12;;;;;;;5.93;2.70;;;;;;;;;;5014210;28;20026;-61
2022/08/25 03:10:38;;;;;;;6.05;2.80;;;;;;;;;;5014597;28;20022;-61
2022/08/25 03:13:03;;;;;;;6.70;2.78;;;;;;;;;;5014340;28;20419;-61
2022/08/25 03:15:29;;;;;;;7.53;2.67;;;;;;;;;;5014174;28;20014;-61
2022/08/25 03:17:54;;;;;;;8.90;2.92;;;;;;;;;;5014303;28;20113;-61
2022/08/25 03:20:23;;;;;;;8.15;2.72;;;;;;;;;;5013983;28;20530;-62
2022/08/25 03:22:49;;;;;;;5.18;2.78;;;;;;;;;;5014389;28;20026;-61
2022/08/25 03:27:59;;;;;;;5.22;2.63;;;;;;;;;;5014125;28;20026;-66
2022/08/25 03:30:25;;;;;;;3.70;2.75;;;;;;;;;;4995679;28;20109;-66
2022/08/25 03:32:50;;;;;;;6.95;2.58;;;;;;;;;;5013956;28;20028;-66
2022/08/25 03:35:15;;;;;;;12.18;2.90;;;;;;;;;;5013761;28;20524;-66
2022/08/25 03:37:41;;;;;;;5.72;2.63;;;;;;;;;;5015652;28;20026;-66
2022/08/25 03:40:08;;;;;;;4.28;2.45;;;;;;;;;;5017380;28;20034;-66
2022/08/25 03:42:34;;;;;;;5.30;2.83;;;;;;;;;;5032272;23;20016;-66
2022/08/25 03:45:01;;;;;;;8.15;2.67;;;;;;;;;;5034738;28;20033;-66
2022/08/25 03:47:28;;;;;;;9.02;2.65;;;;;;;;;;5037170;28;20051;-65
2022/08/25 03:49:53;;;;;;;6.35;2.70;;;;;;;;;;5037448;28;20025;-66
2022/08/25 03:52:19;;;;;;;8.00;3.00;;;;;;;;;;5037090;28;20083;-66
2022/08/25 03:54:44;;;;;;;7.75;2.47;;;;;;;;;;5037465;28;20060;-66
2022/08/25 03:57:10;;;;;;;4.35;2.17;;;;;;;;;;5037688;28;20037;-67
2022/08/25 03:59:37;;;;;;;9.27;2.58;;;;;;;;;;5035640;28;20529;-67
2022/08/25 04:02:04;;;;;;;4.97;2.55;;;;;;;;;;5037518;28;20132;-66
2022/08/25 04:04:29;;;;;;;5.15;2.40;;;;;;;;;;5037084;28;20017;-66
2022/08/25 04:06:55;;;;;;;8.57;2.92;;;;;;;;;;5036735;28;20036;-66
2022/08/25 04:09:21;;;;;;;8.88;2.97;;;;;;;;;;5037059;28;20029;-67
2022/08/25 04:11:46;;;;;;;9.23;3.03;;;;;;;;;;5036741;28;20507;-67
2022/08/25 04:14:12;;;;;;;4.72;2.72;;;;;;;;;;5036353;28;20025;-67
2022/08/25 04:16:37;;;;;;;6.93;3.08;;;;;;;;;;5035357;28;20037;-67
2022/08/25 04:19:04;;;;;;;10.88;3.17;;;;;;;;;;5036499;28;20431;-67
2022/08/25 04:21:30;;;;;;;8.02;2.75;;;;;;;;;;5036303;28;20388;-66
2022/08/25 04:23:55;;;;;;;9.80;3.13;;;;;;;;;;5036515;28;20026;-66
2022/08/25 04:26:23;;;;;;;7.47;2.97;;;;;;;;;;5035985;28;20044;-66
2022/08/25 04:28:48;;;;;;;9.98;3.22;;;;;;;;;;5036528;28;20029;-66
2022/08/25 04:31:15;;;;;;;4.63;2.97;;;;;;;;;;5035087;28;20112;-67
2022/08/25 04:33:40;;;;;;;3.67;3.28;;;;;;;;;;5036320;28;20428;-67
2022/08/25 04:36:07;;;;;;;8.52;3.47;;;;;;;;;;5034607;28;20068;-62
2022/08/25 04:38:32;;;;;;;8.68;3.42;;;;;;;;;;5033982;28;20464;-62
2022/08/25 04:40:58;;;;;;;7.57;3.55;;;;;;;;;;5034015;28;20040;-62
2022/08/25 04:43:24;;;;;;;8.82;3.65;;;;;;;;;;5035757;28;20484;-62
2022/08/25 04:45:49;;;;;;;6.15;3.20;;;;;;;;;;5035675;28;20071;-62
2022/08/25 04:48:14;;;;;;;6.32;3.60;;;;;;;;;;5036018;28;20029;-62
2022/08/25 04:50:40;;;;;;;7.80;3.55;;;;;;;;;;5033944;28;20045;-62
2022/08/25 04:53:05;;;;;;;11.85;4.07;;;;;;;;;;5036065;28;20128;-62
2022/08/25 04:55:31;;;;;;;13.15;4.05;;;;;;;;;;5035816;28;20032;-62
2022/08/25 04:57:56;;;;;;;8.68;4.05;;;;;;;;;;5035963;28;20068;-62
2022/08/25 05:00:22;;;;;;;11.80;5.25;;;;;;;;;;5035662;28;20423;-62
2022/08/25 05:02:48;;;;;;;7.78;4.03;;;;;;;;;;5035736;28;20041;-62
2022/08/25 05:05:13;;;;;;;9.70;3.45;;;;;;;;;;5034416;28;20032;-62
2022/08/25 05:07:39;;;;;;;11.25;4.93;;;;;;;;;;5035646;28;20097;-61
2022/08/25 05:10:05;;;;;;;11.25;4.85;;;;;;;;;;5035511;28;20087;-61
2022/08/25 05:12:30;;;;;;;11.15;5.35;;;;;;;;;;5035515;28;20033;-61
2022/08/25 05:15:48;;;;;;;11.07;5.60;;;;;;;;;;5035486;28;20044;-61
2022/08/25 05:17:41;;;;;;;12.30;4.90;;;;;;;;;;5035410;28;20041;-62
2022/08/25 05:20:06;;;;;;;8.93;4.63;;;;;;;;;;5035631;28;20104;-62
2022/08/25 05:22:32;;;;;;;10.82;5.00;;;;;;;;;;5034535;28;20022;-61
2022/08/25 05:24:58;;;;;;;10.40;5.05;;;;;;;;;;5035641;28;20017;-61
2022/08/25 05:27:23;;;;;;;12.32;5.43;;;;;;;;;;5034636;28;20037;-61
2022/08/25 05:29:48;;;;;;;12.57;5.78;;;;;;;;;;5035318;28;20484;-61
2022/08/25 05:32:14;;;;;;;9.80;4.63;;;;;;;;;;5034721;28;20123;-62
2022/08/25 05:34:39;;;;;;;11.95;4.50;;;;;;;;;;5033887;28;20025;-61
2022/08/25 05:37:05;;;;;;;10.65;4.40;;;;;;;;;;5035231;28;20025;-62
2022/08/25 05:39:32;;;;;;;12.23;4.43;;;;;;;;;;5034709;28;20057;-62
2022/08/25 05:41:57;;;;;;;13.40;3.95;;;;;;;;;;5034864;28;20029;-62
2022/08/25 05:44:23;;;;;;;11.00;4.13;;;;;;;;;;5033301;28;20049;-62
2022/08/25 05:46:49;;;;;;;8.23;3.13;;;;;;;;;;5034897;28;20045;-62
2022/08/25 05:49:14;;;;;;;9.48;4.32;;;;;;;;;;5034280;28;20415;-61
2022/08/25 05:51:39;;;;;;;14.25;3.75;;;;;;;;;;5033788;28;20033;-61
2022/08/25 05:54:05;;;;;;;11.07;3.80;;;;;;;;;;5033742;28;20021;-61
2022/08/25 05:56:30;;;;;;;10.43;3.92;;;;;;;;;;5033673;28;20032;-61
2022/08/25 05:58:55;;;;;;;8.93;4.28;;;;;;;;;;5033571;28;20064;-61
2022/08/25 06:04:08;;;;;;;13.02;4.05;;;;;;;;;;5033497;28;20038;-61
2022/08/25 06:06:33;;;;;;;14.02;4.88;;;;;;;;;;5032246;28;20025;-61
2022/08/25 06:09:00;;;;;;;13.75;4.03;;;;;;;;;;5033438;28;20044;-62
2022/08/25 06:11:28;;;;;;;11.35;3.88;;;;;;;;;;5033378;28;20026;-66
2022/08/25 06:13:54;;;;;;;16.00;4.40;;;;;;;;;;5033290;28;20033;-66
2022/08/25 06:16:19;;;;;;;12.32;3.83;;;;;;;;;;5033397;28;20391;-66
2022/08/25 06:18:44;;;;;;;9.77;3.88;;;;;;;;;;5033170;28;20033;-66
2022/08/25 06:21:11;;;;;;;14.48;3.72;;;;;;;;;;5033257;28;20103;-66
2022/08/25 06:23:37;;;;;;;13.48;4.40;;;;;;;;;;5033187;28;20125;-65
2022/08/25 06:26:02;;;;;;;14.57;4.13;;;;;;;;;;5031958;28;20499;-66
2022/08/25 06:28:28;;;;;;;9.95;3.40;;;;;;;;;;5033107;28;20542;-66
2022/08/25 06:30:57;;;;;;;13.13;4.20;;;;;;;;;;5033037;28;20415;-66
2022/08/25 06:33:22;;;;;;;13.15;3.63;;;;;;;;;;5033149;28;20418;-66
2022/08/25 06:35:48;;;;;;;19.65;4.10;;;;;;;;;;5032943;28;20086;-66
2022/08/25 06:38:13;;;;;;;14.23;4.65;;;;;;;;;;5032829;28;20037;-66
2022/08/25 06:40:38;;;;;;;11.38;3.95;;;;;;;;;;5032990;28;20395;-66
2022/08/25 06:43:07;;;;;;;15.77;4.20;;;;;;;;;;5032657;28;20465;-66
2022/08/25 06:45:33;;;;;;;14.18;3.53;;;;;;;;;;5032864;28;20028;-66
2022/08/25 06:47:58;;;;;;;12.63;3.60;;;;;;;;;;5032808;28;20018;-66
2022/08/25 06:50:24;;;;;;;15.52;4.20;;;;;;;;;;5032736;28;20072;-66
2022/08/25 06:52:50;;;;;;;17.17;4.13;;;;;;;;;;5032749;28;20074;-61
2022/08/25 06:55:16;;;;;;;17.75;4.20;;;;;;;;;;5032700;28;20041;-62
2022/08/25 06:57:41;;;;;;;23.90;4.10;;;;;;;;;;5032599;28;20601;-62
2022/08/25 07:00:09;;;;;;;19.02;4.07;;;;;;;;;;5032483;28;20029;-62
2022/08/25 07:02:35;;;;;;;11.13;4.13;;;;;;;;;;5032692;28;20017;-62
2022/08/25 07:05:00;;;;;;;15.63;3.65;;;;;;;;;;5032540;28;20028;-62
2022/08/25 07:07:26;;;;;;;11.57;3.20;;;;;;;;;;5031325;28;20464;-62
2022/08/25 07:09:51;;;;;;;12.50;3.92;;;;;;;;;;5032488;28;20380;-62
2022/08/25 07:12:16;;;;;;;20.67;4.40;;;;;;;;;;5032186;28;20018;-62
2022/08/25 07:14:42;;;;;;;15.25;4.00;;;;;;;;;;5032454;28;20049;-61
2022/08/25 07:17:08;;;;;;;17.85;3.85;;;;;;;;;;5032465;28;20029;-66
2022/08/25 07:19:33;;;;;;;13.65;4.10;;;;;;;;;;5032316;28;20029;-66
2022/08/25 07:21:58;;;;;;;23.55;4.75;;;;;;;;;;5032453;28;20448;-65
2022/08/25 07:24:24;;;;;;;23.50;4.53;;;;;;;;;;5032393;28;20652;-66
2022/08/25 07:26:50;;;;;;;20.83;4.78;;;;;;;;;;5032407;28;20419;-66
2022/08/25 07:29:21;;;;;;;19.30;4.53;;;;;;;;;;5031088;28;20046;-66
2022/08/25 07:31:47;;;;;;;23.00;4.35;;;;;;;;;;5032378;28;20029;-62
2022/08/25 07:36:56;;;;;;;21.63;4.78;;;;;;;;;;5032306;28;20044;-66
2022/08/25 07:39:22;;;;;;;23.30;5.07;;;;;;;;;;5032200;28;20025;-66
2022/08/25 07:41:48;;;;;;;15.93;3.55;;;;;;;;;;5030987;28;20033;-66
2022/08/25 07:44:13;;;;;;;20.10;4.32;;;;;;;;;;5032092;28;20049;-67
2022/08/25 07:46:39;;;;;;;17.70;4.53;;;;;;;;;;5032234;28;20060;-66
2022/08/25 07:49:04;;;;;;;19.65;4.85;;;;;;;;;;5031028;28;20025;-66
2022/08/25 07:51:30;;;;;;;15.13;3.70;;;;;;;;;;5032248;28;20113;-67
2022/08/25 07:53:55;;;;;;;16.13;4.47;;;;;;;;;;5032364;28;20018;-67
2022/08/25 07:56:21;;;;;;;17.95;3.75;;;;;;;;;;5033160;28;20033;-67
2022/08/25 07:58:47;;;;;;;16.83;3.38;;;;;;;;;;5033108;28;20479;-67
2022/08/25 08:01:14;;;;;;;26.92;5.15;;;;;;;;;;5033406;28;20033;-67
2022/08/25 08:03:41;;;;;;;23.90;4.43;;;;;;;;;;5033427;28;20014;-67
2022/08/25 08:06:07;;;;;;;16.63;4.03;;;;;;;;;;5033063;28;20419;-67
2022/08/25 08:08:32;;;;;;;18.10;4.20;;;;;;;;;;5033129;28;20032;-62
2022/08/25 08:10:59;;;;;;;22.40;4.78;;;;;;;;;;5031795;28;20037;-62
2022/08/25 08:13:25;;;;;;;21.55;5.03;;;;;;;;;;5033060;28;20022;-62
2022/08/25 08:15:51;;;;;;;20.60;5.00;;;;;;;;;;5033602;28;20029;-62
2022/08/25 08:18:16;;;;;;;18.30;4.75;;;;;;;;;;5032946;28;20494;-61
2022/08/25 08:20:43;;;;;;;22.23;4.50;;;;;;;;;;5033242;28;20029;-61
2022/08/25 08:23:08;;;;;;;19.67;4.25;;;;;;;;;;5033488;28;20101;-66
2022/08/25 08:25:33;;;;;;;13.68;3.45;;;;;;;;;;5035313;28;20416;-66
2022/08/25 08:27:59;;;;;;;23.00;4.07;;;;;;;;;;5036450;28;20053;-66
2022/08/25 08:30:24;;;;;;;13.38;4.15;;;;;;;;;;5035521;28;20029;-66
2022/08/25 08:32:49;;;;;;;16.90;4.25;;;;;;;;;;5036405;28;20407;-62
2022/08/25 08:35:17;;;;;;;16.00;4.60;;;;;;;;;;5036316;28;20037;-61
2022/08/25 08:37:44;;;;;;;20.08;4.65;;;;;;;;;;5036583;28;20082;-61
2022/08/25 08:40:11;;;;;;;21.10;5.45;;;;;;;;;;5034947;28;20472;-62
2022/08/25 08:42:56;;;;;;;24.85;5.50;;;;;;;;;;5036013;28;20023;-62
2022/08/25 08:45:31;;;;;;;21.70;4.55;;;;;;;;;;5035301;28;20041;-62
2022/08/25 08:48:05;;;;;;;21.77;4.07;;;;;;;;;;5036367;28;20468;-62
2022/08/25 08:50:34;;;;;;;17.30;4.20;;;;;;;;;;5036590;28;20025;-62
2022/08/25 08:53:03;;;;;;;25.10;4.93;;;;;;;;;;5036011;28;20033;-62
2022/08/25 08:55:37;;;;;;;23.52;5.20;;;;;;;;;;5036499;28;20040;-62
2022/08/25 08:58:06;;;;;;;29.95;5.35;;;;;;;;;;5036172;28;20037;-62
2022/08/25 09:00:36;;;;;;;21.08;5.28;;;;;;;;;;5035976;28;20032;-61
2022/08/25 09:03:04;;;;;;;26.63;5.03;;;;;;;;;;5035803;28;20104;-62
2022/08/25 09:05:31;;;;;;;21.05;4.50;;;;;;;;;;5034463;28;20020;-62
2022/08/25 09:07:58;;;;;;;19.77;4.45;;;;;;;;;;5035737;28;20025;-62
2022/08/25 09:10:27;;;;;;;25.42;5.97;;;;;;;;;;5035604;28;20108;-62
2022/08/25 09:12:58;;;;;;;18.92;4.82;;;;;;;;;;5034887;28;20072;-62
2022/08/25 09:18:37;;;;;;;24.45;5.35;;;;;;;;;;5035736;28;20087;-62
2022/08/25 09:21:14;;;;;;;25.02;4.10;;;;;;;;;;5034949;28;20360;-62
2022/08/25 09:23:58;;;;;;;19.70;4.50;;;;;;;;;;5035669;28;20033;-62
2022/08/25 09:26:43;;;;;;;18.30;4.13;;;;;;;;;;5034036;28;20025;-62
2022/08/25 09:29:12;;;;;;;10.63;3.65;;;;;;;;;;5035904;28;20121;-62
2022/08/25 09:31:39;;;;;;;8.10;3.30;;;;;;;;;;5035578;28;20025;-62
2022/08/25 09:34:06;;;;;;;18.67;4.25;;;;;;;;;;5035373;28;20052;-62
2022/08/25 09:36:32;;;;;;;15.82;4.07;;;;;;;;;;5035456;28;20451;-62
2022/08/25 09:38:58;;;;;;;19.25;4.53;;;;;;;;;;5035289;28;20030;-62
2022/08/25 09:41:42;;;;;;;21.20;4.93;;;;;;;;;;5035417;28;20048;-62
2022/08/25 09:44:18;;;;;;;14.85;3.78;;;;;;;;;;5035694;28;20538;-62
2022/08/25 09:46:55;;;;;;;22.17;4.28;;;;;;;;;;5035276;28;20032;-62
2022/08/25 09:49:29;;;;;;;20.40;5.28;;;;;;;;;;5035160;28;20033;-62
2022/08/25 09:51:56;;;;;;;30.45;5.85;;;;;;;;;;5033861;28;20083;-62
2022/08/25 09:54:24;;;;;;;21.15;5.22;;;;;;;;;;5034635;28;20475;-62
2022/08/25 09:56:51;;;;;;;19.35;5.40;;;;;;;;;;5034231;28;20369;-62
2022/08/25 09:59:17;;;;;;;18.92;5.20;;;;;;;;;;5034559;28;20053;-62
2022/08/25 10:01:55;;;;;;;23.27;5.88;;;;;;;;;;5034835;28;20048;-62
2022/08/25 10:04:28;;;;;;;16.20;4.80;;;;;;;;;;5034457;28;20029;-62
2022/08/25 10:06:54;;;;;;;24.73;6.50;;;;;;;;;;5034871;28;20025;-62
2022/08/25 10:09:46;;;;;;;18.77;5.10;;;;;;;;;;5034480;28;20025;-62
2022/08/25 10:12:16;;;;;;;20.80;4.93;;;;;;;;;;5026438;28;20080;-62
2022/08/25 10:14:42;;;;;;;;;;;;;;;;;;5034900;28;20036;-62
2022/08/25 10:17:12;;;;;;;20.52;6.43;;;;;;;;;;5034589;28;19905;-63
2022/08/25 10:19:38;;;;;;;20.42;6.10;;;;;;;;;;5034495;28;20068;-61
2022/08/25 10:22:11;;;;;;;19.40;6.50;;;;;;;;;;5034350;28;20021;-61
2022/08/25 10:24:38;;;;;;;17.90;6.20;;;;;;;;;;5034440;28;20032;-61
2022/08/25 10:27:09;;;;;;;19.08;5.82;;;;;;;;;;5033364;28;20013;-61
2022/08/25 10:29:44;;;;;;;20.70;6.60;;;;;;;;;;5034476;28;20479;-62
2022/08/25 10:32:09;;;;;;;22.35;6.93;;;;;;;;;;5034142;28;20021;-62
2022/08/25 10:34:35;;;;;;;25.02;6.63;;;;;;;;;;5034115;28;20463;-61
2022/08/25 10:37:09;;;;;;;20.40;6.03;;;;;;;;;;5034318;28;20056;-62
2022/08/25 10:40:05;;;;;;;23.77;6.18;;;;;;;;;;5034143;28;20102;-62
2022/08/25 10:42:39;;;;;;;26.15;6.00;;;;;;;;;;5029308;28;20037;-62
2022/08/25 10:48:13;;;;;;;18.85;4.43;;;;;;;;;;5033865;28;20064;-63
2022/08/25 10:50:44;;;;;;;13.60;4.65;;;;;;;;;;5033966;28;20032;-61
2022/08/25 10:53:15;;;;;;;15.27;5.82;;;;;;;;;;5033882;28;20057;-62
2022/08/25 10:55:59;;;;;;;20.67;4.43;;;;;;;;;;5034143;28;20100;-62
2022/08/25 10:58:37;;;;;;;19.15;5.55;;;;;;;;;;5034076;28;20392;-61
2022/08/25 11:01:06;;;;;;;16.38;5.10;;;;;;;;;;5033771;28;20044;-62
2022/08/25 11:03:44;;;;;;;20.92;5.93;;;;;;;;;;5032314;28;20530;-61
2022/08/25 11:06:15;;;;;;;15.07;5.80;;;;;;;;;;5034165;28;20026;-62
2022/08/25 11:08:50;;;;;;;14.75;5.57;;;;;;;;;;5034282;28;20419;-62
2022/08/25 11:11:20;;;;;;;23.30;5.95;;;;;;;;;;5033821;28;20033;-62
2022/08/25 11:13:45;;;;;;;16.13;5.50;;;;;;;;;;5033842;28;20040;-62
2022/08/25 11:16:15;;;;;;;14.98;4.85;;;;;;;;;;5033549;28;20025;-62
2022/08/25 11:18:50;;;;;;;19.92;5.97;;;;;;;;;;5032159;28;20491;-62
2022/08/25 11:21:19;;;;;;;23.30;5.80;;;;;;;;;;5033582;28;20060;-62
2022/08/25 11:24:05;;;;;;;19.73;5.95;;;;;;;;;;5032213;28;20018;-62
2022/08/25 11:26:33;;;;;;;12.25;4.43;;;;;;;;;;5033963;28;20022;-62
2022/08/25 11:29:04;;;;;;;14.27;5.38;;;;;;;;;;5033751;28;20543;-62
2022/08/25 11:31:32;;;;;;;13.05;5.45;;;;;;;;;;5031505;28;20033;-62
2022/08/25 11:33:58;;;;;;;16.75;5.28;;;;;;;;;;5032554;28;20029;-62
2022/08/25 11:36:24;;;;;;;18.48;5.63;;;;;;;;;;5033404;28;20443;-62
2022/08/25 11:38:52;;;;;;;10.38;3.58;;;;;;;;;;5033288;28;20384;-62
2022/08/25 11:41:17;;;;;;;21.05;5.10;;;;;;;;;;5033578;28;20029;-62
2022/08/25 11:44:02;;;;;;;16.58;5.10;;;;;;;;;;5033359;28;20546;-62
2022/08/25 11:46:27;;;;;;;22.05;5.00;;;;;;;;;;5033850;28;20034;-62
2022/08/25 11:48:53;;;;;;;15.55;4.13;;;;;;;;;;5033573;28;20128;-62
2022/08/25 11:51:32;;;;;;;17.73;4.78;;;;;;;;;;5033588;28;20040;-62
2022/08/25 11:54:16;;;;;;;26.83;4.68;;;;;;;;;;5033715;28;20030;-62
2022/08/25 11:56:42;;;;;;;22.35;5.18;;;;;;;;;;5033744;28;20033;-62
2022/08/25 11:59:07;;;;;;;16.02;3.58;;;;;;;;;;5035312;28;20383;-62
2022/08/25 12:01:39;;;;;;;11.48;4.28;;;;;;;;;;5037218;28;20079;-62
2022/08/25 12:04:13;;;;;;;16.05;3.90;;;;;;;;;;5035625;28;20457;-62
2022/08/25 12:06:57;;;;;;;23.67;4.97;;;;;;;;;;5035610;28;20543;-62
2022/08/25 12:09:23;;;;;;;18.30;4.10;;;;;;;;;;5037333;28;20415;-62
2022/08/25 12:11:50;;;;;;;22.17;4.57;;;;;;;;;;5037096;28;20017;-62
2022/08/25 12:14:25;;;;;;;16.90;4.47;;;;;;;;;;5035461;28;20037;-62
2022/08/25 12:16:52;;;;;;;22.80;4.80;;;;;;;;;;5035519;28;20476;-62
2022/08/25 12:19:35;;;;;;;15.50;3.67;;;;;;;;;;5035489;28;20026;-62
2022/08/25 12:22:01;;;;;;;19.92;4.28;;;;;;;;;;5035525;28;20036;-62
2022/08/25 12:24:41;;;;;;;17.23;4.00;;;;;;;;;;5035468;28;20017;-62
2022/08/25 12:27:27;;;;;;;22.92;4.50;;;;;;;;;;5035413;28;20029;-62
2022/08/25 12:30:11;;;;;;;23.13;4.28;;;;;;;;;;5035072;28;20507;-62
2022/08/25 12:32:39;;;;;;;21.00;4.65;;;;;;;;;;5035400;28;20030;-62
2022/08/25 12:35:14;;;;;;;11.25;3.65;;;;;;;;;;5035291;28;20100;-62
2022/08/25 12:38:00;;;;;;;12.38;4.00;;;;;;;;;;5035251;28;20090;-62
2022/08/25 12:40:30;;;;;;;18.88;4.05;;;;;;;;;;5035046;28;20041;-62
2022/08/25 12:43:06;;;;;;;14.13;3.30;;;;;;;;;;5035066;28;20507;-62
2022/08/25 12:45:37;;;;;;;20.20;4.20;;;;;;;;;;5035042;28;20041;-63
2022/08/25 12:48:21;;;;;;;9.68;3.63;;;;;;;;;;5035002;28;20049;-62
2022/08/25 12:50:49;;;;;;;16.15;4.10;;;;;;;;;;5033787;28;20399;-62
2022/08/25 12:53:18;;;;;;;19.02;4.47;;;;;;;;;;5034983;28;20022;-62
2022/08/25 12:56:04;;;;;;;23.33;4.05;;;;;;;;;;5034963;28;20033;-62
2022/08/25 12:58:37;;;;;;;18.38;4.20;;;;;;;;;;5030687;28;20045;-61
2022/08/25 13:01:12;;;;;;;16.10;3.90;;;;;;;;;;5034646;28;20594;-61
2022/08/25 13:03:43;;;;;;;12.07;3.75;;;;;;;;;;5035318;28;20018;-62
2022/08/25 13:06:27;;;;;;;15.18;3.95;;;;;;;;;;5035420;28;20427;-62
2022/08/25 13:08:53;;;;;;;17.25;3.70;;;;;;;;;;5035660;28;20108;-61
2022/08/25 13:11:22;;;;;;;12.68;3.40;;;;;;;;;;5033530;28;20104;-62
2022/08/25 13:14:06;;;;;;;12.93;3.67;;;;;;;;;;5033312;28;20372;-62
2022/08/25 13:16:32;;;;;;;10.88;3.40;;;;;;;;;;5034750;28;20029;-62
2022/08/25 13:19:00;;;;;;;23.15;4.60;;;;;;;;;;5035130;28;20355;-62
2022/08/25 13:21:32;;;;;;;9.40;3.05;;;;;;;;;;5032473;28;20033;-61
2022/08/25 13:23:58;;;;;;;14.07;3.50;;;;;;;;;;5035133;28;20032;-62
2022/08/25 13:26:26;;;;;;;26.60;6.15;;;;;;;;;;5034595;28;20020;-62
2022/08/25 13:29:12;;;;;;;16.98;3.97;;;;;;;;;;5032360;28;20038;-62
2022/08/25 13:31:48;;;;;;;14.95;3.63;;;;;;;;;;5032390;28;20567;-62
2022/08/25 13:34:18;;;;;;;15.80;3.53;;;;;;;;;;5033517;28;20457;-65
2022/08/25 13:39:29;;;;;;;10.45;3.33;;;;;;;;;;5034611;28;20030;-65
2022/08/25 13:41:56;;;;;;;10.27;3.15;;;;;;;;;;5034140;28;20062;-65
2022/08/25 13:44:24;;;;;;;15.55;3.40;;;;;;;;;;5034574;28;20041;-65
2022/08/25 13:47:09;;;;;;;13.10;3.15;;;;;;;;;;5033892;28;20025;-65
2022/08/25 13:49:35;;;;;;;19.33;3.67;;;;;;;;;;5033495;28;20033;-65
2022/08/25 13:52:01;;;;;;;15.95;3.70;;;;;;;;;;5033848;28;20043;-65
2022/08/25 13:54:29;;;;;;;21.42;3.90;;;;;;;;;;5033206;28;20428;-65
2022/08/25 13:57:02;;;;;;;10.73;3.08;;;;;;;;;;5033437;28;20021;-65
2022/08/25 13:59:32;;;;;;;11.13;2.92;;;;;;;;;;5033506;28;20038;-65
2022/08/25 14:01:58;;;;;;;14.00;3.30;;;;;;;;;;5033621;28;20049;-65
2022/08/25 14:04:27;;;;;;;12.63;3.10;;;;;;;;;;5033624;28;20498;-65
2022/08/25 14:07:06;;;;;;;17.00;3.55;;;;;;;;;;5033551;28;20034;-65
2022/08/25 14:09:58;;;;;;;11.70;3.80;;;;;;;;;;5033470;28;20041;-65
2022/08/25 14:12:29;;;;;;;12.18;3.65;;;;;;;;;;5032184;28;20479;-65
2022/08/25 14:14:54;;;;;;;;;;;;;;;;;;5033821;28;20033;-65
2022/08/25 14:17:19;;;;;;;21.87;3.30;;;;;;;;;;5033379;28;19904;-65
2022/08/25 14:19:45;;;;;;;14.18;3.50;;;;;;;;;;5033180;28;20288;-65
2022/08/25 14:22:12;;;;;;;9.73;3.10;;;;;;;;;;5032385;28;20380;-65
2022/08/25 14:24:38;;;;;;;9.82;3.10;;;;;;;;;;5033230;28;20018;-65
2022/08/25 14:27:03;;;;;;;14.70;3.25;;;;;;;;;;5033402;28;20017;-65
2022/08/25 14:29:29;;;;;;;13.63;3.20;;;;;;;;;;5033144;28;20029;-68
2022/08/25 14:31:55;;;;;;;12.10;3.15;;;;;;;;;;5031904;28;20464;-65
2022/08/25 14:34:22;;;;;;;20.08;4.07;;;;;;;;;;5033034;28;20038;-65
2022/08/25 14:36:48;;;;;;;11.63;3.30;;;;;;;;;;5032997;28;20048;-65
2022/08/25 14:39:14;;;;;;;13.25;3.60;;;;;;;;;;5032874;28;20030;-65
2022/08/25 14:41:40;;;;;;;17.17;4.43;;;;;;;;;;5033884;28;20482;-65
2022/08/25 14:44:09;;;;;;;18.65;4.18;;;;;;;;;;5033993;28;20119;-65
2022/08/25 14:46:36;;;;;;;22.25;3.50;;;;;;;;;;5034508;28;20026;-65
2022/08/25 14:49:03;;;;;;;18.77;3.67;;;;;;;;;;5032673;28;20026;-65
2022/08/25 14:51:30;;;;;;;15.40;3.45;;;;;;;;;;5034442;28;20021;-65
2022/08/25 14:53:59;;;;;;;12.57;3.63;;;;;;;;;;5034159;28;20410;-65
2022/08/25 14:56:25;;;;;;;15.88;4.38;;;;;;;;;;5033832;28;20025;-65
2022/08/25 14:58:50;;;;;;;11.70;3.45;;;;;;;;;;5034228;28;20080;-65
2022/08/25 15:01:16;;;;;;;11.43;3.60;;;;;;;;;;5033768;28;20491;-65